Time;durP1;ratioP1;P1;durP2;ratioP2;P2;SDS_P1;SDS_P2;PMS_P1;PMS_P2;Temp;Humidity;BMP_temperature;BMP_pressure;BME280_temperature;BME280_humidity;BME280_pressure;Samples;Min_cycle;Max_cycle;Signal;HPM_P1;HPM_P2
2022/07/25 00:02:14;;;;;;;5.70;2.30;;;;;;;;;;6233320;23;20016;-53
2022/07/25 00:04:41;;;;;;;3.58;2.42;;;;;;;;;;6206757;23;20420;-52
2022/07/25 00:07:08;;;;;;;5.63;2.30;;;;;;;;;;6236070;23;20016;-55
2022/07/25 00:09:36;;;;;;;6.15;3.00;;;;;;;;;;6233204;23;20016;-55
2022/07/25 00:12:02;;;;;;;5.80;2.70;;;;;;;;;;6233694;23;20019;-54
2022/07/25 00:14:29;;;;;;;7.13;3.10;;;;;;;;;;6240082;23;20031;-55
2022/07/25 00:16:55;;;;;;;5.97;2.70;;;;;;;;;;6231158;23;20016;-57
2022/07/25 00:19:22;;;;;;;5.25;3.22;;;;;;;;;;6211237;23;20051;-54
2022/07/25 00:21:49;;;;;;;5.20;2.78;;;;;;;;;;6230341;23;20023;-55
2022/07/25 00:24:15;;;;;;;6.38;2.80;;;;;;;;;;6237716;23;20036;-56
2022/07/25 00:26:43;;;;;;;7.03;2.75;;;;;;;;;;6229499;23;20016;-56
2022/07/25 00:29:10;;;;;;;7.25;3.05;;;;;;;;;;6232549;23;20016;-55
2022/07/25 00:31:36;;;;;;;3.95;2.47;;;;;;;;;;6231540;23;20353;-57
2022/07/25 00:34:03;;;;;;;6.45;3.00;;;;;;;;;;6211026;23;20020;-57
2022/07/25 00:36:29;;;;;;;5.88;2.15;;;;;;;;;;6228467;23;20443;-56
2022/07/25 00:38:56;;;;;;;7.30;3.00;;;;;;;;;;6214097;23;20020;-55
2022/07/25 00:41:22;;;;;;;6.05;2.90;;;;;;;;;;6227788;23;20040;-57
2022/07/25 00:43:50;;;;;;;7.38;3.15;;;;;;;;;;6240064;23;20012;-55
2022/07/25 00:46:17;;;;;;;7.25;2.80;;;;;;;;;;6230221;23;20012;-57
2022/07/25 00:48:44;;;;;;;5.22;2.50;;;;;;;;;;6236265;23;20012;-54
2022/07/25 00:51:11;;;;;;;5.80;2.40;;;;;;;;;;6218486;23;20022;-56
2022/07/25 00:53:38;;;;;;;7.03;3.63;;;;;;;;;;6205487;23;20012;-56
2022/07/25 00:56:06;;;;;;;4.25;3.10;;;;;;;;;;6231614;23;20023;-55
2022/07/25 00:58:32;;;;;;;7.38;3.25;;;;;;;;;;6229793;23;20012;-57
2022/07/25 01:01:01;;;;;;;6.97;2.83;;;;;;;;;;6229959;23;20016;-56
2022/07/25 01:03:28;;;;;;;5.93;3.45;;;;;;;;;;6221913;23;20016;-54
2022/07/25 01:05:54;;;;;;;7.40;3.70;;;;;;;;;;6233910;23;20038;-57
2022/07/25 01:08:22;;;;;;;6.25;3.00;;;;;;;;;;6240078;23;20012;-56
2022/07/25 01:10:48;;;;;;;10.77;3.45;;;;;;;;;;6232321;23;20411;-56
2022/07/25 01:13:15;;;;;;;6.47;3.03;;;;;;;;;;6232933;23;20016;-56
2022/07/25 01:15:42;;;;;;;7.95;3.15;;;;;;;;;;6231633;23;20465;-54
2022/07/25 01:18:11;;;;;;;8.30;3.53;;;;;;;;;;6239936;23;20070;-56
2022/07/25 01:20:40;;;;;;;7.65;3.53;;;;;;;;;;6235606;23;20012;-57
2022/07/25 01:23:07;;;;;;;6.72;3.03;;;;;;;;;;6237577;23;20016;-57
2022/07/25 01:25:36;;;;;;;5.55;3.47;;;;;;;;;;6228168;23;20306;-53
2022/07/25 01:28:03;;;;;;;5.07;3.03;;;;;;;;;;6234288;23;20016;-55
2022/07/25 01:30:30;;;;;;;9.27;4.32;;;;;;;;;;6236212;23;20012;-57
2022/07/25 01:32:56;;;;;;;12.50;3.50;;;;;;;;;;6191450;23;20321;-57
2022/07/25 01:35:23;;;;;;;12.10;3.50;;;;;;;;;;6238524;23;20012;-56
2022/07/25 01:37:51;;;;;;;11.63;3.20;;;;;;;;;;6200955;23;20051;-57
2022/07/25 01:40:18;;;;;;;11.23;4.05;;;;;;;;;;6231109;23;20062;-54
2022/07/25 01:42:44;;;;;;;12.10;4.10;;;;;;;;;;6239625;23;20012;-57
2022/07/25 01:45:12;;;;;;;9.15;4.13;;;;;;;;;;6231944;23;20023;-57
2022/07/25 01:47:39;;;;;;;7.38;3.75;;;;;;;;;;6239483;23;20035;-56
2022/07/25 01:50:06;;;;;;;10.40;3.63;;;;;;;;;;6236024;23;20079;-57
2022/07/25 01:52:32;;;;;;;14.70;4.13;;;;;;;;;;6232137;23;20011;-57
2022/07/25 01:55:00;;;;;;;12.00;3.85;;;;;;;;;;6233196;23;20028;-57
2022/07/25 01:57:27;;;;;;;14.00;4.10;;;;;;;;;;6236816;23;20020;-58
2022/07/25 01:59:53;;;;;;;12.60;4.18;;;;;;;;;;6203239;23;20082;-57
2022/07/25 02:02:20;;;;;;;9.30;3.97;;;;;;;;;;6235983;23;20016;-56
2022/07/25 02:04:47;;;;;;;8.77;4.07;;;;;;;;;;6233062;23;20095;-54
2022/07/25 02:07:14;;;;;;;10.43;5.20;;;;;;;;;;6211106;23;20016;-56
2022/07/25 02:09:40;;;;;;;12.65;4.25;;;;;;;;;;6233537;23;20020;-57
2022/07/25 02:12:08;;;;;;;9.98;4.78;;;;;;;;;;6231119;23;20137;-57
2022/07/25 02:14:35;;;;;;;10.35;3.65;;;;;;;;;;6236049;23;20172;-56
2022/07/25 02:17:01;;;;;;;10.68;4.32;;;;;;;;;;6225226;23;20016;-57
2022/07/25 02:19:28;;;;;;;10.25;3.88;;;;;;;;;;6233074;23;20023;-57
2022/07/25 02:21:55;;;;;;;12.60;3.85;;;;;;;;;;6200976;23;20477;-55
2022/07/25 02:24:21;;;;;;;19.85;4.63;;;;;;;;;;6235307;23;20012;-57
2022/07/25 02:26:47;;;;;;;7.60;3.97;;;;;;;;;;6226626;23;20016;-55
2022/07/25 02:29:16;;;;;;;8.82;4.15;;;;;;;;;;6237662;23;20016;-56
2022/07/25 02:31:42;;;;;;;11.02;3.80;;;;;;;;;;6228922;23;20016;-56
2022/07/25 02:34:09;;;;;;;9.13;4.68;;;;;;;;;;6227188;23;20016;-56
2022/07/25 02:36:35;;;;;;;14.88;4.40;;;;;;;;;;6225599;23;20020;-57
2022/07/25 02:39:02;;;;;;;8.85;4.05;;;;;;;;;;6233172;23;20016;-57
2022/07/25 02:41:28;;;;;;;11.25;3.88;;;;;;;;;;6233250;23;20316;-56
2022/07/25 02:44:03;;;;;;;6.90;3.50;;;;;;;;;;6212319;23;20190;-57
2022/07/25 02:46:32;;;;;;;12.15;4.50;;;;;;;;;;6225165;23;20012;-57
2022/07/25 02:48:59;;;;;;;9.70;3.88;;;;;;;;;;6232233;23;20013;-58
2022/07/25 02:51:25;;;;;;;11.85;3.97;;;;;;;;;;6227741;23;20039;-57
2022/07/25 02:53:52;;;;;;;9.32;3.80;;;;;;;;;;6210199;23;20055;-57
2022/07/25 02:56:19;;;;;;;12.75;3.55;;;;;;;;;;6227204;23;20031;-56
2022/07/25 02:58:46;;;;;;;11.95;4.95;;;;;;;;;;6236487;23;20012;-53
2022/07/25 03:01:12;;;;;;;11.05;3.95;;;;;;;;;;6231074;23;20016;-56
2022/07/25 03:03:40;;;;;;;12.23;4.63;;;;;;;;;;6236718;23;20016;-56
2022/07/25 03:06:07;;;;;;;11.98;3.90;;;;;;;;;;6234041;23;20013;-55
2022/07/25 03:08:34;;;;;;;16.23;4.40;;;;;;;;;;6238065;23;20355;-57
2022/07/25 03:11:00;;;;;;;5.60;2.97;;;;;;;;;;6231094;23;20602;-57
2022/07/25 03:13:27;;;;;;;11.45;2.72;;;;;;;;;;6238796;23;20011;-57
2022/07/25 03:15:53;;;;;;;8.23;2.70;;;;;;;;;;6230759;23;20026;-55
2022/07/25 03:18:20;;;;;;;8.85;3.13;;;;;;;;;;6225809;23;20043;-54
2022/07/25 03:20:48;;;;;;;6.93;2.80;;;;;;;;;;6209697;23;20044;-56
2022/07/25 03:23:14;;;;;;;5.13;2.50;;;;;;;;;;6219272;23;20381;-57
2022/07/25 03:25:41;;;;;;;5.47;2.55;;;;;;;;;;6238889;23;20012;-57
2022/07/25 03:28:08;;;;;;;8.30;2.67;;;;;;;;;;6224344;23;20016;-54
2022/07/25 03:30:34;;;;;;;6.18;2.75;;;;;;;;;;6234855;23;20093;-57
2022/07/25 03:33:01;;;;;;;8.60;3.33;;;;;;;;;;6226214;23;20020;-57
2022/07/25 03:35:27;;;;;;;6.07;2.65;;;;;;;;;;6237591;23;20020;-56
2022/07/25 03:37:55;;;;;;;11.07;3.15;;;;;;;;;;6224577;23;20299;-54
2022/07/25 03:40:22;;;;;;;5.38;2.78;;;;;;;;;;6239189;23;20115;-56
2022/07/25 03:42:49;;;;;;;11.18;3.30;;;;;;;;;;6230419;23;20463;-56
2022/07/25 03:45:16;;;;;;;5.20;2.63;;;;;;;;;;6205557;23;20036;-55
2022/07/25 03:47:43;;;;;;;9.68;2.70;;;;;;;;;;6210015;23;20438;-57
2022/07/25 03:50:09;;;;;;;6.47;3.08;;;;;;;;;;6230717;23;20204;-55
2022/07/25 03:52:37;;;;;;;7.03;2.85;;;;;;;;;;6233411;23;20027;-56
2022/07/25 03:55:05;;;;;;;6.78;2.80;;;;;;;;;;6238314;23;20012;-55
2022/07/25 03:57:32;;;;;;;5.18;2.22;;;;;;;;;;6226466;23;20020;-55
2022/07/25 03:59:58;;;;;;;5.15;2.17;;;;;;;;;;6215164;23;20179;-55
2022/07/25 04:02:25;;;;;;;14.35;2.95;;;;;;;;;;6237722;23;20012;-55
2022/07/25 04:04:51;;;;;;;9.30;2.58;;;;;;;;;;6230825;23;20016;-57
2022/07/25 04:07:18;;;;;;;5.57;2.70;;;;;;;;;;6237227;23;20392;-55
2022/07/25 04:09:44;;;;;;;7.00;2.13;;;;;;;;;;6201037;23;20540;-56
2022/07/25 04:12:12;;;;;;;3.47;1.95;;;;;;;;;;6234856;23;20019;-54
2022/07/25 04:14:39;;;;;;;7.65;2.15;;;;;;;;;;6206300;23;20040;-58
2022/07/25 04:17:05;;;;;;;6.82;2.65;;;;;;;;;;6235391;23;20020;-55
2022/07/25 04:19:32;;;;;;;5.25;2.17;;;;;;;;;;6225913;23;20442;-56
2022/07/25 04:21:58;;;;;;;4.53;2.33;;;;;;;;;;6242068;23;20040;-57
2022/07/25 04:24:25;;;;;;;7.82;2.63;;;;;;;;;;6226519;23;20169;-55
2022/07/25 04:26:52;;;;;;;8.75;3.05;;;;;;;;;;6237719;23;20118;-57
2022/07/25 04:29:22;;;;;;;6.30;2.13;;;;;;;;;;6229433;23;20822;-56
2022/07/25 04:31:48;;;;;;;4.03;1.80;;;;;;;;;;6238504;23;20016;-55
2022/07/25 04:34:15;;;;;;;6.22;1.83;;;;;;;;;;6210140;23;20012;-57
2022/07/25 04:36:41;;;;;;;6.70;1.23;;;;;;;;;;6228484;23;20024;-56
2022/07/25 04:39:08;;;;;;;1.45;0.82;;;;;;;;;;6240626;23;20016;-57
2022/07/25 04:41:34;;;;;;;6.95;1.20;;;;;;;;;;6231295;23;20016;-57
2022/07/25 04:44:01;;;;;;;2.08;0.95;;;;;;;;;;6234221;23;20012;-54
2022/07/25 04:46:29;;;;;;;3.90;1.00;;;;;;;;;;6224394;23;20023;-57
2022/07/25 04:48:55;;;;;;;0.93;0.75;;;;;;;;;;6240179;23;20012;-57
2022/07/25 04:51:22;;;;;;;2.92;0.82;;;;;;;;;;6229432;23;20012;-56
2022/07/25 04:53:48;;;;;;;2.65;1.00;;;;;;;;;;6241875;23;20142;-57
2022/07/25 04:56:15;;;;;;;3.13;1.23;;;;;;;;;;6224292;23;20486;-56
2022/07/25 04:58:41;;;;;;;2.20;1.20;;;;;;;;;;6239508;23;20020;-57
2022/07/25 05:01:08;;;;;;;3.63;1.50;;;;;;;;;;6234747;23;20018;-56
2022/07/25 05:03:36;;;;;;;4.22;0.90;;;;;;;;;;6203823;23;20525;-56
2022/07/25 05:06:02;;;;;;;3.58;0.90;;;;;;;;;;6228417;23;20341;-56
2022/07/25 05:08:29;;;;;;;1.13;1.02;;;;;;;;;;6240352;23;20036;-56
2022/07/25 05:10:56;;;;;;;2.10;0.93;;;;;;;;;;6224229;23;20008;-54
2022/07/25 05:13:22;;;;;;;2.08;0.88;;;;;;;;;;6235267;23;20023;-56
2022/07/25 05:15:49;;;;;;;3.72;1.15;;;;;;;;;;6231437;23;20107;-57
2022/07/25 05:18:16;;;;;;;3.83;0.88;;;;;;;;;;6232905;23;20381;-55
2022/07/25 05:20:43;;;;;;;2.20;1.15;;;;;;;;;;6230106;23;20421;-57
2022/07/25 05:23:10;;;;;;;4.35;1.77;;;;;;;;;;6232003;23;20016;-57
2022/07/25 05:25:36;;;;;;;3.22;1.73;;;;;;;;;;6206153;23;20020;-56
2022/07/25 05:28:03;;;;;;;2.45;1.50;;;;;;;;;;6232350;23;20028;-55
2022/07/25 05:30:30;;;;;;;6.28;1.90;;;;;;;;;;6231595;23;20016;-54
2022/07/25 05:32:56;;;;;;;5.28;1.95;;;;;;;;;;6235020;23;20016;-55
2022/07/25 05:35:23;;;;;;;5.78;2.22;;;;;;;;;;6232224;23;20462;-57
2022/07/25 05:37:50;;;;;;;3.72;1.83;;;;;;;;;;6232299;23;20473;-55
2022/07/25 05:40:18;;;;;;;4.75;2.25;;;;;;;;;;6233697;23;20023;-58
2022/07/25 05:42:44;;;;;;;7.60;2.13;;;;;;;;;;6234678;23;20325;-56
2022/07/25 05:45:11;;;;;;;5.60;2.03;;;;;;;;;;6199561;23;20016;-55
2022/07/25 05:47:38;;;;;;;10.48;2.80;;;;;;;;;;6235530;23;20023;-55
2022/07/25 05:50:05;;;;;;;7.50;2.72;;;;;;;;;;6201835;23;20074;-57
2022/07/25 05:52:31;;;;;;;7.47;2.17;;;;;;;;;;6231973;22;20076;-57
2022/07/25 05:54:59;;;;;;;5.47;1.67;;;;;;;;;;6234529;22;20012;-55
2022/07/25 05:57:26;;;;;;;8.98;2.47;;;;;;;;;;6229274;22;20020;-57
2022/07/25 05:59:52;;;;;;;4.40;1.63;;;;;;;;;;6237270;22;20012;-57
2022/07/25 06:02:19;;;;;;;5.63;2.20;;;;;;;;;;6225465;22;20054;-55
2022/07/25 06:04:45;;;;;;;7.28;2.58;;;;;;;;;;6237780;23;20012;-56
2022/07/25 06:07:12;;;;;;;4.95;1.98;;;;;;;;;;6222973;22;20047;-56
2022/07/25 06:09:38;;;;;;;4.10;1.70;;;;;;;;;;6235051;22;20012;-58
2022/07/25 06:12:07;;;;;;;5.20;2.72;;;;;;;;;;6228188;22;20091;-56
2022/07/25 06:14:33;;;;;;;11.20;2.42;;;;;;;;;;6237842;22;20019;-54
2022/07/25 06:17:00;;;;;;;3.38;1.60;;;;;;;;;;6228111;22;20051;-54
2022/07/25 06:19:27;;;;;;;3.30;1.50;;;;;;;;;;6233745;22;20023;-56
2022/07/25 06:21:53;;;;;;;12.90;2.72;;;;;;;;;;6230250;22;20469;-56
2022/07/25 06:24:20;;;;;;;4.82;1.92;;;;;;;;;;6238116;23;20080;-57
2022/07/25 06:26:46;;;;;;;3.42;1.45;;;;;;;;;;6228957;22;20013;-58
2022/07/25 06:29:14;;;;;;;2.90;1.30;;;;;;;;;;6236818;22;20012;-57
2022/07/25 06:31:41;;;;;;;3.08;2.03;;;;;;;;;;6206836;22;20012;-57
2022/07/25 06:34:07;;;;;;;3.63;1.50;;;;;;;;;;6221101;23;20020;-57
2022/07/25 06:36:34;;;;;;;4.13;1.45;;;;;;;;;;6234029;22;20020;-54
2022/07/25 06:39:01;;;;;;;3.75;1.55;;;;;;;;;;6232002;22;20020;-58
2022/07/25 06:41:27;;;;;;;5.75;1.40;;;;;;;;;;6231455;22;20016;-56
2022/07/25 06:43:54;;;;;;;4.95;1.50;;;;;;;;;;6232911;22;20012;-56
2022/07/25 06:46:22;;;;;;;4.82;1.40;;;;;;;;;;6223187;22;20020;-58
2022/07/25 06:48:49;;;;;;;2.88;1.30;;;;;;;;;;6239729;23;20032;-58
2022/07/25 06:51:15;;;;;;;1.30;1.20;;;;;;;;;;6226318;23;20016;-55
2022/07/25 06:53:42;;;;;;;5.40;1.50;;;;;;;;;;6220305;22;20019;-54
2022/07/25 06:56:09;;;;;;;8.00;1.88;;;;;;;;;;6199697;22;20020;-56
2022/07/25 06:58:35;;;;;;;3.75;1.45;;;;;;;;;;6165787;22;20023;-54
2022/07/25 07:01:02;;;;;;;7.63;1.90;;;;;;;;;;6199954;22;20346;-57
2022/07/25 07:03:31;;;;;;;4.93;1.27;;;;;;;;;;6203025;23;20094;-56
2022/07/25 07:06:00;;;;;;;4.47;1.17;;;;;;;;;;6223976;22;20012;-61
2022/07/25 07:08:27;;;;;;;2.60;1.00;;;;;;;;;;6227324;23;20020;-58
2022/07/25 07:10:53;;;;;;;7.57;1.83;;;;;;;;;;6230400;22;20012;-55
2022/07/25 07:13:22;;;;;;;4.68;1.40;;;;;;;;;;6236890;22;20023;-58
2022/07/25 07:15:49;;;;;;;1.90;1.70;;;;;;;;;;6226949;23;20016;-57
2022/07/25 07:18:16;;;;;;;6.50;1.33;;;;;;;;;;6232068;22;20014;-56
2022/07/25 07:20:44;;;;;;;4.13;1.08;;;;;;;;;;6229865;22;20038;-54
2022/07/25 07:23:11;;;;;;;4.60;1.67;;;;;;;;;;6228751;22;20079;-57
2022/07/25 07:25:37;;;;;;;3.83;0.93;;;;;;;;;;6229245;22;20019;-55
2022/07/25 07:28:04;;;;;;;2.35;1.05;;;;;;;;;;6228801;23;20016;-57
2022/07/25 07:30:31;;;;;;;5.30;1.27;;;;;;;;;;6230343;22;20012;-57
2022/07/25 07:32:57;;;;;;;4.07;1.13;;;;;;;;;;6232395;22;20091;-56
2022/07/25 07:35:24;;;;;;;4.97;1.35;;;;;;;;;;6225715;22;20016;-55
2022/07/25 07:37:53;;;;;;;3.60;1.30;;;;;;;;;;6228411;22;20028;-57
2022/07/25 07:40:19;;;;;;;5.85;1.30;;;;;;;;;;6232805;23;20083;-57
2022/07/25 07:42:48;;;;;;;4.63;0.82;;;;;;;;;;6232623;22;20582;-54
2022/07/25 07:45:15;;;;;;;3.85;1.23;;;;;;;;;;6226017;23;20016;-57
2022/07/25 07:47:42;;;;;;;4.82;1.23;;;;;;;;;;6229890;22;20522;-56
2022/07/25 07:50:10;;;;;;;5.03;1.23;;;;;;;;;;6227007;22;20019;-58
2022/07/25 07:52:36;;;;;;;2.42;0.93;;;;;;;;;;6230309;23;20100;-56
2022/07/25 07:57:49;;;;;;;5.22;1.23;;;;;;;;;;6221748;23;20016;-58
2022/07/25 08:00:20;;;;;;;10.50;2.13;;;;;;;;;;6226379;23;20016;-57
2022/07/25 08:02:48;;;;;;;6.85;1.55;;;;;;;;;;6234392;23;20039;-57
2022/07/25 08:05:21;;;;;;;4.07;1.27;;;;;;;;;;6223747;23;20012;-58
2022/07/25 08:07:50;;;;;;;6.60;1.42;;;;;;;;;;6229643;23;20016;-57
2022/07/25 08:10:19;;;;;;;5.60;1.30;;;;;;;;;;6200720;23;20012;-56
2022/07/25 08:12:45;;;;;;;3.90;1.10;;;;;;;;;;6230476;23;20013;-58
2022/07/25 08:15:12;;;;;;;4.80;1.10;;;;;;;;;;6230208;23;20034;-56
2022/07/25 08:17:38;;;;;;;4.68;1.35;;;;;;;;;;6185482;23;20028;-56
2022/07/25 08:20:07;;;;;;;3.63;1.20;;;;;;;;;;6225910;23;20478;-56
2022/07/25 08:22:37;;;;;;;6.03;1.13;;;;;;;;;;6232791;23;20038;-55
2022/07/25 08:25:04;;;;;;;2.90;1.30;;;;;;;;;;6226290;23;20032;-58
2022/07/25 08:27:32;;;;;;;9.38;1.83;;;;;;;;;;6222810;23;20034;-57
2022/07/25 08:30:00;;;;;;;6.05;1.75;;;;;;;;;;6181044;23;20019;-56
2022/07/25 08:32:27;;;;;;;6.32;1.40;;;;;;;;;;6174867;23;20601;-56
2022/07/25 08:34:54;;;;;;;5.80;1.30;;;;;;;;;;6200387;23;20016;-56
2022/07/25 08:37:20;;;;;;;3.85;1.35;;;;;;;;;;6201051;23;20304;-57
2022/07/25 08:39:47;;;;;;;2.85;1.38;;;;;;;;;;6185401;23;20012;-55
2022/07/25 08:42:13;;;;;;;4.55;1.35;;;;;;;;;;6206890;23;20016;-58
2022/07/25 08:44:43;;;;;;;5.10;1.20;;;;;;;;;;6219293;23;20424;-58
2022/07/25 08:47:14;;;;;;;4.35;1.30;;;;;;;;;;6223589;23;20043;-57
2022/07/25 08:49:41;;;;;;;2.65;1.08;;;;;;;;;;6204212;23;20282;-56
2022/07/25 08:52:08;;;;;;;6.72;1.27;;;;;;;;;;6212333;23;20066;-58
2022/07/25 08:54:35;;;;;;;3.03;1.10;;;;;;;;;;6219780;23;20016;-57
2022/07/25 08:57:05;;;;;;;3.50;1.10;;;;;;;;;;6209840;23;20023;-57
2022/07/25 08:59:32;;;;;;;2.75;1.20;;;;;;;;;;6212548;23;20020;-57
2022/07/25 09:02:02;;;;;;;5.15;1.50;;;;;;;;;;6210453;23;20016;-57
2022/07/25 09:04:29;;;;;;;1.95;1.27;;;;;;;;;;6217826;23;20070;-57
2022/07/25 09:06:55;;;;;;;5.85;1.30;;;;;;;;;;6207896;23;20016;-56
2022/07/25 09:09:29;;;;;;;1.65;1.55;;;;;;;;;;6211189;23;20024;-55
2022/07/25 09:11:56;;;;;;;5.78;1.80;;;;;;;;;;6218158;23;20472;-57
2022/07/25 09:14:22;;;;;;;4.55;0.90;;;;;;;;;;6216168;23;20020;-58
2022/07/25 09:16:49;;;;;;;6.20;1.45;;;;;;;;;;6219371;23;20449;-55
2022/07/25 09:19:18;;;;;;;3.20;1.55;;;;;;;;;;6181179;23;20510;-55
2022/07/25 09:21:46;;;;;;;4.43;1.40;;;;;;;;;;6215310;23;20027;-57
2022/07/25 09:24:15;;;;;;;3.45;1.52;;;;;;;;;;6188529;23;20020;-58
2022/07/25 09:26:46;;;;;;;5.50;1.27;;;;;;;;;;6216766;23;20219;-58
2022/07/25 09:29:16;;;;;;;2.95;0.70;;;;;;;;;;6211847;23;20020;-55
2022/07/25 09:31:42;;;;;;;2.38;1.08;;;;;;;;;;6214728;23;20112;-57
2022/07/25 09:34:11;;;;;;;2.60;2.05;;;;;;;;;;6214296;23;20020;-58
2022/07/25 09:36:42;;;;;;;2.90;1.10;;;;;;;;;;6215593;23;20016;-56
2022/07/25 09:39:09;;;;;;;1.55;0.88;;;;;;;;;;6221172;23;20427;-59
2022/07/25 09:41:36;;;;;;;3.20;1.02;;;;;;;;;;6212520;23;20016;-58
2022/07/25 09:44:04;;;;;;;4.38;1.05;;;;;;;;;;6192042;23;20039;-58
2022/07/25 09:46:31;;;;;;;8.23;1.60;;;;;;;;;;6215087;23;20071;-57
2022/07/25 09:49:00;;;;;;;1.75;0.85;;;;;;;;;;6193136;23;20558;-57
2022/07/25 09:51:27;;;;;;;2.20;0.98;;;;;;;;;;6210669;23;20119;-57
2022/07/25 09:53:56;;;;;;;4.90;1.48;;;;;;;;;;6208207;23;20023;-57
2022/07/25 09:56:22;;;;;;;1.48;0.88;;;;;;;;;;6179799;23;20114;-57
2022/07/25 09:58:52;;;;;;;2.83;1.00;;;;;;;;;;6216975;23;20012;-58
2022/07/25 10:01:22;;;;;;;3.80;0.95;;;;;;;;;;6219614;23;20160;-57
2022/07/25 10:03:50;;;;;;;3.15;1.30;;;;;;;;;;6213812;23;20087;-58
2022/07/25 10:06:29;;;;;;;3.90;1.23;;;;;;;;;;6197535;23;20019;-57
2022/07/25 10:08:57;;;;;;;5.38;1.17;;;;;;;;;;6188142;23;20535;-57
2022/07/25 10:11:25;;;;;;;5.60;1.27;;;;;;;;;;6206767;23;20028;-57
2022/07/25 10:13:52;;;;;;;6.22;1.42;;;;;;;;;;6215016;23;20026;-56
2022/07/25 10:16:20;;;;;;;5.70;1.23;;;;;;;;;;6181127;23;20008;-57
2022/07/25 10:18:48;;;;;;;2.42;1.35;;;;;;;;;;6211765;23;20027;-57
2022/07/25 10:21:15;;;;;;;6.45;1.55;;;;;;;;;;6216417;23;20016;-56
2022/07/25 10:23:42;;;;;;;4.80;1.30;;;;;;;;;;6210051;23;20012;-58
2022/07/25 10:26:14;;;;;;;3.97;1.10;;;;;;;;;;6219075;23;20020;-57
2022/07/25 10:28:42;;;;;;;4.15;1.30;;;;;;;;;;6213929;23;20287;-56
2022/07/25 10:31:15;;;;;;;5.35;1.45;;;;;;;;;;6215467;23;20071;-57
2022/07/25 10:33:42;;;;;;;4.20;1.25;;;;;;;;;;6204100;23;20023;-57
2022/07/25 10:36:10;;;;;;;5.35;1.58;;;;;;;;;;6212676;23;20023;-56
2022/07/25 10:38:39;;;;;;;4.22;1.10;;;;;;;;;;6208855;23;20031;-55
2022/07/25 10:41:07;;;;;;;2.42;0.95;;;;;;;;;;6214429;23;20099;-55
2022/07/25 10:43:38;;;;;;;2.07;1.13;;;;;;;;;;6210791;23;20560;-57
2022/07/25 10:46:10;;;;;;;4.38;1.10;;;;;;;;;;6210714;23;20040;-56
2022/07/25 10:48:37;;;;;;;6.78;1.40;;;;;;;;;;6211502;23;20016;-57
2022/07/25 10:51:06;;;;;;;4.25;1.50;;;;;;;;;;6208098;23;20024;-56
2022/07/25 10:53:34;;;;;;;3.10;1.73;;;;;;;;;;6196905;23;20042;-54
2022/07/25 10:56:05;;;;;;;7.75;1.58;;;;;;;;;;6182510;23;20016;-57
2022/07/25 10:58:44;;;;;;;6.72;1.70;;;;;;;;;;6220065;23;20090;-56
2022/07/25 11:01:12;;;;;;;2.08;1.27;;;;;;;;;;6214820;23;20394;-56
2022/07/25 11:03:40;;;;;;;5.82;0.98;;;;;;;;;;6216512;23;20015;-56
2022/07/25 11:06:07;;;;;;;3.83;1.20;;;;;;;;;;6200684;23;20023;-57
2022/07/25 11:08:34;;;;;;;3.70;1.70;;;;;;;;;;6213911;23;20012;-56
2022/07/25 11:11:01;;;;;;;4.57;1.15;;;;;;;;;;6202765;23;20071;-54
2022/07/25 11:13:28;;;;;;;2.50;1.00;;;;;;;;;;6217986;23;20108;-56
2022/07/25 11:15:58;;;;;;;2.97;1.27;;;;;;;;;;6207661;23;20020;-56
2022/07/25 11:18:31;;;;;;;3.22;1.17;;;;;;;;;;6189766;23;20028;-56
2022/07/25 11:20:58;;;;;;;3.00;0.88;;;;;;;;;;6217190;23;20024;-56
2022/07/25 11:23:25;;;;;;;1.50;0.75;;;;;;;;;;6207606;23;20012;-56
2022/07/25 11:25:52;;;;;;;3.13;1.17;;;;;;;;;;6193461;23;20016;-57
2022/07/25 11:28:18;;;;;;;3.95;1.30;;;;;;;;;;6207509;23;20016;-55
2022/07/25 11:30:45;;;;;;;2.70;1.27;;;;;;;;;;6217722;23;20019;-56
2022/07/25 11:33:14;;;;;;;1.83;0.60;;;;;;;;;;6212764;23;20023;-57
2022/07/25 11:35:41;;;;;;;0.68;0.65;;;;;;;;;;6217483;23;20339;-56
2022/07/25 11:38:08;;;;;;;4.47;1.30;;;;;;;;;;6213977;23;20491;-55
2022/07/25 11:40:42;;;;;;;2.58;1.20;;;;;;;;;;6218183;23;20139;-57
2022/07/25 11:43:19;;;;;;;2.55;1.17;;;;;;;;;;6211561;23;20100;-54
2022/07/25 11:45:55;;;;;;;2.47;1.10;;;;;;;;;;6215391;23;20039;-54
2022/07/25 11:48:30;;;;;;;1.55;0.75;;;;;;;;;;6180868;23;20032;-55
2022/07/25 11:50:56;;;;;;;1.55;0.93;;;;;;;;;;6218018;23;20078;-57
2022/07/25 11:53:24;;;;;;;2.10;1.00;;;;;;;;;;6200767;23;20042;-56
2022/07/25 11:55:51;;;;;;;5.22;1.13;;;;;;;;;;6211408;23;20016;-57
2022/07/25 11:58:18;;;;;;;1.58;0.88;;;;;;;;;;6173536;23;20024;-55
2022/07/25 12:00:45;;;;;;;3.25;0.90;;;;;;;;;;6182824;23;20206;-57
2022/07/25 12:03:12;;;;;;;1.45;0.70;;;;;;;;;;6213995;23;20027;-58
2022/07/25 12:05:41;;;;;;;2.97;0.93;;;;;;;;;;6211416;23;20082;-57
2022/07/25 12:08:09;;;;;;;1.35;0.73;;;;;;;;;;6188635;23;20016;-58
2022/07/25 12:10:35;;;;;;;3.58;1.05;;;;;;;;;;6204760;23;20023;-57
2022/07/25 12:13:05;;;;;;;2.97;0.68;;;;;;;;;;6219799;23;20027;-57
2022/07/25 12:15:35;;;;;;;0.80;0.80;;;;;;;;;;6213631;23;20020;-57
2022/07/25 12:18:02;;;;;;;1.00;0.85;;;;;;;;;;6206950;23;20127;-58
2022/07/25 12:20:30;;;;;;;2.83;1.00;;;;;;;;;;6212658;23;20022;-58
2022/07/25 12:23:01;;;;;;;2.42;0.85;;;;;;;;;;6180659;23;20016;-58
2022/07/25 12:25:28;;;;;;;0.95;0.60;;;;;;;;;;6189337;23;20027;-57
2022/07/25 12:27:55;;;;;;;0.82;0.60;;;;;;;;;;6215972;23;20717;-55
2022/07/25 12:30:22;;;;;;;1.70;0.60;;;;;;;;;;6211277;23;20019;-57
2022/07/25 12:32:48;;;;;;;0.95;0.70;;;;;;;;;;6210777;23;20036;-56
2022/07/25 12:35:15;;;;;;;2.28;0.57;;;;;;;;;;6223398;23;20026;-57
2022/07/25 12:37:42;;;;;;;1.70;0.63;;;;;;;;;;6203869;23;20321;-57
2022/07/25 12:40:10;;;;;;;1.98;0.70;;;;;;;;;;6217140;23;20016;-57
2022/07/25 12:42:37;;;;;;;0.95;0.60;;;;;;;;;;6207876;23;20496;-55
2022/07/25 12:45:04;;;;;;;1.20;0.80;;;;;;;;;;6211202;23;20215;-58
2022/07/25 12:47:31;;;;;;;2.08;1.10;;;;;;;;;;6217460;23;20047;-58
2022/07/25 12:49:58;;;;;;;2.83;1.10;;;;;;;;;;6213756;23;20031;-57
2022/07/25 12:52:26;;;;;;;2.95;1.00;;;;;;;;;;6212824;23;20024;-56
2022/07/25 12:54:52;;;;;;;2.65;0.88;;;;;;;;;;6220324;23;20398;-55
2022/07/25 12:57:21;;;;;;;1.88;0.80;;;;;;;;;;6208977;23;20016;-55
2022/07/25 12:59:47;;;;;;;2.08;0.77;;;;;;;;;;6215726;23;20094;-57
2022/07/25 13:02:14;;;;;;;5.03;1.23;;;;;;;;;;6203125;23;20030;-54
2022/07/25 13:04:41;;;;;;;0.95;0.77;;;;;;;;;;6192136;23;20829;-55
2022/07/25 13:07:08;;;;;;;3.17;1.10;;;;;;;;;;6217839;23;20814;-53
2022/07/25 13:09:34;;;;;;;1.77;1.02;;;;;;;;;;6196849;23;20123;-54
2022/07/25 13:12:01;;;;;;;4.93;1.20;;;;;;;;;;6214407;23;20019;-57
2022/07/25 13:14:29;;;;;;;1.38;1.00;;;;;;;;;;6220753;23;20039;-54
2022/07/25 13:16:56;;;;;;;2.33;0.95;;;;;;;;;;6216015;23;20219;-55
2022/07/25 13:19:22;;;;;;;4.32;1.52;;;;;;;;;;6223321;23;20024;-54
2022/07/25 13:21:49;;;;;;;1.48;1.02;;;;;;;;;;6216609;23;20043;-57
2022/07/25 13:24:15;;;;;;;0.25;0.20;;;;;;;;;;6185568;23;20013;-54
2022/07/25 13:26:42;;;;;;;0.60;0.50;;;;;;;;;;6203742;23;20363;-54
2022/07/25 13:29:10;;;;;;;0.47;0.30;;;;;;;;;;6219984;23;20408;-56
2022/07/25 13:31:38;;;;;;;0.25;0.25;;;;;;;;;;6174566;23;20089;-53
2022/07/25 13:34:04;;;;;;;0.20;0.20;;;;;;;;;;6216799;23;20084;-55
2022/07/25 13:36:31;;;;;;;0.20;0.10;;;;;;;;;;6212299;23;20020;-55
2022/07/25 13:38:58;;;;;;;0.60;0.55;;;;;;;;;;6221921;23;20050;-52
2022/07/25 13:41:24;;;;;;;0.52;0.32;;;;;;;;;;6210383;23;20020;-56
2022/07/25 13:43:51;;;;;;;1.23;0.70;;;;;;;;;;6223176;23;20027;-55
2022/07/25 13:46:18;;;;;;;3.80;0.90;;;;;;;;;;6215772;23;20016;-56
2022/07/25 13:48:46;;;;;;;0.80;0.80;;;;;;;;;;6219764;23;20495;-53
2022/07/25 13:51:13;;;;;;;1.58;0.80;;;;;;;;;;6212672;23;20076;-55
2022/07/25 13:53:43;;;;;;;1.13;0.70;;;;;;;;;;6220041;23;20012;-56
2022/07/25 13:56:10;;;;;;;2.85;0.88;;;;;;;;;;6218427;23;20083;-54
2022/07/25 13:58:37;;;;;;;2.83;0.77;;;;;;;;;;6203600;23;20023;-54
2022/07/25 14:01:04;;;;;;;1.40;0.90;;;;;;;;;;6219678;23;20016;-53
2022/07/25 14:03:30;;;;;;;1.83;0.85;;;;;;;;;;6207629;23;20024;-55
2022/07/25 14:05:58;;;;;;;1.95;0.75;;;;;;;;;;6217041;23;20016;-53
2022/07/25 14:08:25;;;;;;;4.65;1.15;;;;;;;;;;6212981;23;20156;-52
2022/07/25 14:10:52;;;;;;;4.15;0.82;;;;;;;;;;6217164;23;20043;-54
2022/07/25 14:13:18;;;;;;;3.28;0.93;;;;;;;;;;6211236;23;20438;-56
2022/07/25 14:15:45;;;;;;;3.33;1.17;;;;;;;;;;6188717;23;20434;-53
2022/07/25 14:18:12;;;;;;;1.27;1.20;;;;;;;;;;6190132;23;20019;-54
2022/07/25 14:20:39;;;;;;;2.13;1.15;;;;;;;;;;6179923;23;20025;-54
2022/07/25 14:23:07;;;;;;;1.65;0.93;;;;;;;;;;6188762;23;20020;-54
2022/07/25 14:25:36;;;;;;;2.25;1.25;;;;;;;;;;6187140;23;20423;-53
2022/07/25 14:28:03;;;;;;;1.67;1.00;;;;;;;;;;6179088;23;20016;-52
2022/07/25 14:30:31;;;;;;;0.98;0.82;;;;;;;;;;6200103;23;20039;-54
2022/07/25 14:32:58;;;;;;;4.00;1.40;;;;;;;;;;6222048;23;20016;-54
2022/07/25 14:35:25;;;;;;;2.03;1.08;;;;;;;;;;6180293;23;20311;-54
2022/07/25 14:37:51;;;;;;;1.23;0.88;;;;;;;;;;6230038;23;20096;-53
2022/07/25 14:40:19;;;;;;;0.60;0.60;;;;;;;;;;6226653;23;20020;-56
2022/07/25 14:42:46;;;;;;;0.68;0.60;;;;;;;;;;6229726;23;20192;-50
2022/07/25 14:45:17;;;;;;;2.35;0.70;;;;;;;;;;6210728;23;20020;-54